Time,TemperatureF,DewpointF,PressureIn,WindDirection,WindDirectionDegrees,WindSpeedMPH,WindSpeedGustMPH,Humidity,HourlyPrecipIn,Conditions,Clouds,dailyrainin,SolarRadiationWatts/m^2,SoftwareType,DateUTC
2013-02-27 05:30:00,40.0,38.4,29.93,West,272,0.0,0.0,94,0.00,,,0.00,0,Wunderground v.1.15,2013-02-27 11:30:00,
2013-02-27 05:35:00,39.9,38.6,29.93,West,272,0.0,0.0,95,0.00,,,0.00,0,Wunderground v.1.15,2013-02-27 11:35:00,
2013-02-27 05:40:00,39.9,38.6,29.93,West,272,0.0,0.0,95,0.00,,,0.00,0,Wunderground v.1.15,2013-02-27 11:40:00,
2013-02-27 05:45:00,39.9,38.6,29.94,West,272,0.0,0.0,95,0.00,,,0.00,0,Wunderground v.1.15,2013-02-27 11:45:00,
2013-02-27 05:55:00,39.8,38.5,29.94,West,272,0.0,0.0,95,0.00,,,0.00,0,Wunderground v.1.15,2013-02-27 11:55:00,
2013-02-27 06:00:00,39.7,38.4,29.94,West,272,0.0,0.0,95,0.00,,,0.00,0,Wunderground v.1.15,2013-02-27 12:00:00,
2013-02-27 06:09:00,39.6,38.3,29.95,West,272,0.0,0.0,95,0.00,,,0.00,0,Wunderground v.1.15,2013-02-27 12:09:00,
2013-02-27 06:20:00,39.5,38.2,29.95,West,272,0.0,0.0,95,0.00,,,0.00,0,Wunderground v.1.15,2013-02-27 12:20:00,
2013-02-27 06:25:00,39.4,38.1,29.96,West,272,0.0,0.0,95,0.00,,,0.00,0,Wunderground v.1.15,2013-02-27 12:25:00,
2013-02-27 06:30:00,39.4,38.1,29.96,West,272,0.0,0.0,95,0.00,,,0.00,0,Wunderground v.1.15,2013-02-27 12:30:00,
2013-02-27 06:39:00,39.3,38.0,29.96,West,272,0.0,0.0,95,0.00,,,0.00,0,Wunderground v.1.15,2013-02-27 12:39:00,
2013-02-27 06:44:00,39.3,38.0,29.96,West,272,0.0,0.0,95,0.00,,,0.00,0,Wunderground v.1.15,2013-02-27 12:44:00,
2013-02-27 06:50:00,39.4,38.1,29.96,West,272,0.0,0.0,95,0.00,,,0.00,0,Wunderground v.1.15,2013-02-27 12:50:00,
2013-02-27 06:55:00,39.6,38.6,29.97,West,272,0.0,0.0,96,0.00,,,0.00,7,Wunderground v.1.15,2013-02-27 12:55:00,
2013-02-27 07:00:00,39.7,38.7,29.97,West,272,0.0,0.0,96,0.00,,,0.00,14,Wunderground v.1.15,2013-02-27 13:00:00,
2013-02-27 07:10:00,39.9,38.9,29.97,West,272,0.0,0.0,96,0.00,,,0.00,23,Wunderground v.1.15,2013-02-27 13:10:00,
2013-02-27 07:15:00,40.0,39.0,29.98,West,272,0.0,0.0,96,0.00,,,0.00,37,Wunderground v.1.15,2013-02-27 13:15:00,
2013-02-27 07:20:00,40.2,39.2,29.98,West,272,0.0,0.0,96,0.00,,,0.00,35,Wunderground v.1.15,2013-02-27 13:20:00,
2013-02-27 07:25:00,40.5,39.4,29.98,West,272,0.0,0.0,96,0.00,,,0.00,40,Wunderground v.1.15,2013-02-27 13:25:00,
2013-02-27 07:30:00,40.7,39.6,29.98,West,272,0.0,0.0,96,0.00,,,0.00,51,Wunderground v.1.15,2013-02-27 13:30:00,
2013-02-27 07:39:00,41.1,40.0,29.98,West,272,0.0,0.0,96,0.00,,,0.00,62,Wunderground v.1.15,2013-02-27 13:39:00,
2013-02-27 07:44:00,41.4,40.3,29.98,West,272,0.0,0.0,96,0.00,,,0.00,72,Wunderground v.1.15,2013-02-27 13:44:00,
2013-02-27 07:50:00,41.8,41.0,29.99,West,272,0.0,0.0,97,0.00,,,0.00,77,Wunderground v.1.15,2013-02-27 13:50:00,
2013-02-27 07:55:00,42.2,41.4,29.99,West,272,0.0,0.0,97,0.00,,,0.00,141,Wunderground v.1.15,2013-02-27 13:55:00,
2013-02-27 08:04:00,43.1,42.3,30.00,West,272,0.0,0.0,97,0.00,,,0.00,77,Wunderground v.1.15,2013-02-27 14:04:00,
2013-02-27 08:09:00,43.5,42.7,30.01,West,272,0.0,0.0,97,0.00,,,0.00,97,Wunderground v.1.15,2013-02-27 14:09:00,
2013-02-27 08:14:00,44.0,43.2,30.01,West,272,0.0,0.0,97,0.00,,,0.00,149,Wunderground v.1.15,2013-02-27 14:14:00,
2013-02-27 08:20:00,44.7,43.9,30.01,West,272,0.0,0.0,97,0.00,,,0.00,257,Wunderground v.1.15,2013-02-27 14:20:00,
2013-02-27 08:25:00,45.8,45.0,30.01,SW,227,0.0,1.0,97,0.00,,,0.00,211,Wunderground v.1.15,2013-02-27 14:25:00,
2013-02-27 08:30:00,47.4,44.6,30.01,South,184,0.0,0.0,90,0.00,,,0.00,156,Wunderground v.1.15,2013-02-27 14:30:00,
2013-02-27 08:39:00,50.5,44.9,30.02,SW,220,0.0,4.0,81,0.00,,,0.00,279,Wunderground v.1.15,2013-02-27 14:39:00,
2013-02-27 08:44:00,51.9,45.3,30.02,SSW,194,1.0,5.0,78,0.00,,,0.00,366,Wunderground v.1.15,2013-02-27 14:44:00,
2013-02-27 08:50:00,52.9,44.5,30.02,South,171,2.0,5.0,73,0.00,,,0.00,392,Wunderground v.1.15,2013-02-27 14:50:00,
2013-02-27 08:55:00,53.8,45.3,30.02,South,180,2.0,5.0,73,0.00,,,0.00,417,Wunderground v.1.15,2013-02-27 14:55:00,
2013-02-27 09:05:00,55.4,44.6,30.02,SSE,155,2.0,4.0,67,0.00,,,0.00,450,Wunderground v.1.15,2013-02-27 15:05:00,
2013-02-27 09:10:00,55.9,44.3,30.02,SSE,162,2.0,2.0,65,0.00,,,0.00,475,Wunderground v.1.15,2013-02-27 15:10:00,
2013-02-27 09:15:00,56.8,44.3,30.02,SSE,162,2.0,2.0,63,0.00,,,0.00,487,Wunderground v.1.15,2013-02-27 15:15:00,
2013-02-27 09:24:00,58.3,45.3,30.02,SW,219,2.0,4.0,62,0.00,,,0.00,519,Wunderground v.1.15,2013-02-27 15:24:00,
2013-02-27 09:29:00,59.1,46.1,30.02,South,173,3.0,4.0,62,0.00,,,0.00,534,Wunderground v.1.15,2013-02-27 15:29:00,
2013-02-27 09:35:00,59.5,46.9,30.02,South,188,3.0,4.0,63,0.00,,,0.00,548,Wunderground v.1.15,2013-02-27 15:35:00,
2013-02-27 09:40:00,60.2,47.6,30.02,SW,217,3.0,3.0,63,0.00,,,0.00,561,Wunderground v.1.15,2013-02-27 15:40:00,
2013-02-27 09:45:00,60.9,48.6,30.02,SW,219,3.0,5.0,64,0.00,,,0.00,578,Wunderground v.1.15,2013-02-27 15:45:00,
2013-02-27 09:50:00,61.2,48.9,30.02,SSE,152,3.0,5.0,64,0.00,,,0.00,591,Wunderground v.1.15,2013-02-27 15:50:00,
2013-02-27 09:59:00,62.0,49.7,30.02,SSW,198,4.0,4.0,64,0.00,,,0.00,622,Wunderground v.1.15,2013-02-27 15:59:00,
2013-02-27 10:05:00,62.3,49.5,30.02,South,173,5.0,5.0,63,0.00,,,0.00,633,Wunderground v.1.15,2013-02-27 16:05:00,
2013-02-27 10:10:00,62.8,49.1,30.01,SW,218,4.0,5.0,61,0.00,,,0.00,635,Wunderground v.1.15,2013-02-27 16:10:00,
2013-02-27 10:15:00,63.4,49.3,30.01,SSW,209,3.0,13.0,60,0.00,,,0.00,656,Wunderground v.1.15,2013-02-27 16:15:00,
2013-02-27 10:20:00,63.6,49.0,30.01,SW,221,4.0,7.0,59,0.00,,,0.00,666,Wunderground v.1.15,2013-02-27 16:20:00,
2013-02-27 10:30:00,64.6,48.5,30.01,SW,220,4.0,4.0,56,0.00,,,0.00,684,Wunderground v.1.15,2013-02-27 16:30:00,
2013-02-27 10:40:00,64.5,48.0,30.00,SW,215,6.0,6.0,55,0.00,,,0.00,701,Wunderground v.1.15,2013-02-27 16:40:00,
2013-02-27 10:45:00,64.9,48.3,30.00,WSW,242,5.0,9.0,55,0.00,,,0.00,473,Wunderground v.1.15,2013-02-27 16:45:00,
2013-02-27 10:54:00,65.4,48.3,29.99,SSW,213,7.0,11.0,54,0.00,,,0.00,301,Wunderground v.1.15,2013-02-27 16:54:00,
2013-02-27 11:05:00,66.0,50.3,29.99,WSW,257,6.0,16.0,57,0.00,,,0.00,721,Wunderground v.1.15,2013-02-27 17:05:00,
2013-02-27 11:10:00,66.1,49.9,29.99,South,186,7.0,7.0,56,0.00,,,0.00,418,Wunderground v.1.15,2013-02-27 17:10:00,
2013-02-27 11:15:00,66.7,50.0,29.98,SSW,199,6.0,7.0,55,0.00,,,0.00,360,Wunderground v.1.15,2013-02-27 17:15:00,
2013-02-27 11:25:00,67.3,50.6,29.99,WSW,252,8.0,15.0,55,0.00,,,0.00,320,Wunderground v.1.15,2013-02-27 17:25:00,
2013-02-27 11:30:00,67.8,51.0,29.98,WNW,288,8.0,8.0,55,0.00,,,0.00,320,Wunderground v.1.15,2013-02-27 17:30:00,
2013-02-27 11:35:00,68.1,50.8,29.98,SW,230,9.0,12.0,54,0.00,,,0.00,113,Wunderground v.1.15,2013-02-27 17:35:00,
2013-02-27 11:45:00,68.9,51.6,29.97,WSW,257,10.0,19.0,54,0.00,,,0.00,197,Wunderground v.1.15,2013-02-27 17:45:00,
2013-02-27 11:50:00,69.5,51.6,29.98,SW,227,9.0,12.0,53,0.00,,,0.00,789,Wunderground v.1.15,2013-02-27 17:50:00,
2013-02-27 11:59:00,69.9,52.0,29.97,SSW,209,10.0,18.0,53,0.00,,,0.00,796,Wunderground v.1.15,2013-02-27 17:59:00,
2013-02-27 12:05:00,70.3,52.4,29.97,West,278,9.0,18.0,53,0.00,,,0.00,800,Wunderground v.1.15,2013-02-27 18:05:00,
2013-02-27 12:10:00,70.8,51.8,29.97,West,263,9.0,9.0,51,0.00,,,0.00,807,Wunderground v.1.15,2013-02-27 18:10:00,
2013-02-27 12:20:00,71.2,51.6,29.97,WNW,286,8.0,8.0,50,0.00,,,0.00,844,Wunderground v.1.15,2013-02-27 18:20:00,
2013-02-27 12:25:00,71.3,51.7,29.97,West,277,9.0,11.0,50,0.00,,,0.00,879,Wunderground v.1.15,2013-02-27 18:25:00,
2013-02-27 12:35:00,71.9,50.6,29.96,WSW,256,9.0,10.0,47,0.00,,,0.00,828,Wunderground v.1.15,2013-02-27 18:35:00,
2013-02-27 12:40:00,71.6,50.3,29.96,WNW,293,10.0,10.0,47,0.00,,,0.00,838,Wunderground v.1.15,2013-02-27 18:40:00,
2013-02-27 12:45:00,71.6,51.4,29.96,SW,233,9.0,10.0,49,0.00,,,0.00,828,Wunderground v.1.15,2013-02-27 18:45:00,
2013-02-27 12:50:00,71.7,51.0,29.96,WSW,239,8.0,15.0,48,0.00,,,0.00,819,Wunderground v.1.15,2013-02-27 18:50:00,
2013-02-27 12:59:00,72.5,51.7,29.95,WNW,288,7.0,7.0,48,0.00,,,0.00,868,Wunderground v.1.15,2013-02-27 18:59:00,
2013-02-27 13:05:00,72.7,51.3,29.95,SW,219,7.0,7.0,47,0.00,,,0.00,204,Wunderground v.1.15,2013-02-27 19:05:00,
2013-02-27 13:10:00,72.8,50.8,29.94,WNW,296,7.0,7.0,46,0.00,,,0.00,802,Wunderground v.1.15,2013-02-27 19:10:00,
2013-02-27 13:15:00,72.7,48.9,29.95,WNW,291,9.0,9.0,43,0.00,,,0.00,802,Wunderground v.1.15,2013-02-27 19:15:00,
2013-02-27 13:24:00,72.8,47.1,29.94,WNW,292,8.0,17.0,40,0.00,,,0.00,810,Wunderground v.1.15,2013-02-27 19:24:00,
2013-02-27 13:29:00,73.2,48.1,29.94,WSW,244,6.0,6.0,41,0.00,,,0.00,831,Wunderground v.1.15,2013-02-27 19:29:00,
2013-02-27 13:34:00,73.7,45.1,29.94,West,269,6.0,9.0,36,0.00,,,0.00,784,Wunderground v.1.15,2013-02-27 19:34:00,
2013-02-27 13:40:00,73.8,43.7,29.94,WNW,287,9.0,9.0,34,0.00,,,0.00,777,Wunderground v.1.15,2013-02-27 19:40:00,
2013-02-27 13:45:00,73.9,42.2,29.94,WNW,297,8.0,12.0,32,0.00,,,0.00,768,Wunderground v.1.15,2013-02-27 19:45:00,
2013-02-27 13:50:00,73.6,41.9,29.95,NW,306,8.0,13.0,32,0.00,,,0.00,765,Wunderground v.1.15,2013-02-27 19:50:00,
2013-02-27 14:00:00,72.7,40.3,29.96,NNW,328,9.0,14.0,31,0.00,,,0.00,758,Wunderground v.1.15,2013-02-27 20:00:00,
2013-02-27 14:10:00,72.0,42.8,29.96,NW,319,10.0,10.0,35,0.00,,,0.00,728,Wunderground v.1.15,2013-02-27 20:10:00,
2013-02-27 14:15:00,71.3,42.2,29.97,North,355,10.0,10.0,35,0.00,,,0.00,717,Wunderground v.1.15,2013-02-27 20:15:00,
2013-02-27 14:24:00,70.9,41.1,29.97,WNW,290,9.0,10.0,34,0.00,,,0.00,654,Wunderground v.1.15,2013-02-27 20:24:00,
2013-02-27 14:29:00,70.8,38.7,29.96,North,351,9.0,9.0,31,0.00,,,0.00,708,Wunderground v.1.15,2013-02-27 20:29:00,
2013-02-27 14:35:00,70.5,37.6,29.97,WNW,287,10.0,10.0,30,0.00,,,0.00,666,Wunderground v.1.15,2013-02-27 20:35:00,
2013-02-27 14:40:00,70.5,35.8,29.97,NNW,327,9.0,10.0,28,0.00,,,0.00,679,Wunderground v.1.15,2013-02-27 20:40:00,
2013-02-27 14:45:00,70.4,35.7,29.97,NW,325,8.0,10.0,28,0.00,,,0.00,664,Wunderground v.1.15,2013-02-27 20:45:00,
2013-02-27 14:54:00,70.1,36.3,29.97,NW,322,9.0,10.0,29,0.00,,,0.00,568,Wunderground v.1.15,2013-02-27 20:54:00,
2013-02-27 14:59:00,69.6,35.9,29.97,West,267,10.0,10.0,29,0.00,,,0.00,643,Wunderground v.1.15,2013-02-27 20:59:00,
2013-02-27 15:05:00,69.5,37.5,29.97,North,349,8.0,13.0,31,0.00,,,0.00,619,Wunderground v.1.15,2013-02-27 21:05:00,
2013-02-27 15:15:00,69.9,38.7,29.97,NNW,336,7.0,9.0,32,0.00,,,0.00,552,Wunderground v.1.15,2013-02-27 21:15:00,
2013-02-27 15:24:00,69.9,39.5,29.97,NW,305,8.0,11.0,33,0.00,,,0.00,394,Wunderground v.1.15,2013-02-27 21:24:00,
2013-02-27 15:29:00,69.2,38.9,29.97,NW,322,10.0,10.0,33,0.00,,,0.00,346,Wunderground v.1.15,2013-02-27 21:29:00,
2013-02-27 15:35:00,68.5,39.0,29.97,NNW,332,10.0,10.0,34,0.00,,,0.00,299,Wunderground v.1.15,2013-02-27 21:35:00,
2013-02-27 15:40:00,68.2,38.7,29.98,NW,310,9.0,12.0,34,0.00,,,0.00,446,Wunderground v.1.15,2013-02-27 21:40:00,
2013-02-27 15:49:00,68.3,41.0,29.98,North,355,6.0,6.0,37,0.00,,,0.00,469,Wunderground v.1.15,2013-02-27 21:49:00,
2013-02-27 15:54:00,68.3,41.7,29.98,North,349,8.0,13.0,38,0.00,,,0.00,475,Wunderground v.1.15,2013-02-27 21:54:00,
2013-02-27 15:59:00,67.9,42.0,29.98,WNW,287,9.0,9.0,39,0.00,,,0.00,362,Wunderground v.1.15,2013-02-27 21:59:00,
2013-02-27 16:05:00,67.7,42.5,29.98,NW,312,9.0,9.0,40,0.00,,,0.00,346,Wunderground v.1.15,2013-02-27 22:05:00,
2013-02-27 16:10:00,67.2,42.7,29.99,NNE,15,9.0,12.0,41,0.00,,,0.00,327,Wunderground v.1.15,2013-02-27 22:10:00,
2013-02-27 16:15:00,66.8,43.0,29.99,NW,304,9.0,12.0,42,0.00,,,0.00,237,Wunderground v.1.15,2013-02-27 22:15:00,
2013-02-27 16:24:00,65.6,41.3,29.99,NW,318,9.0,11.0,41,0.00,,,0.00,243,Wunderground v.1.15,2013-02-27 22:24:00,
2013-02-27 16:29:00,65.2,40.3,29.99,NNW,336,10.0,16.0,40,0.00,,,0.00,366,Wunderground v.1.15,2013-02-27 22:29:00,
2013-02-27 16:35:00,64.9,40.6,29.99,NNW,327,11.0,16.0,41,0.00,,,0.00,250,Wunderground v.1.15,2013-02-27 22:35:00,
2013-02-27 16:40:00,64.6,40.4,29.99,NNW,333,10.0,11.0,41,0.00,,,0.00,218,Wunderground v.1.15,2013-02-27 22:40:00,
2013-02-27 16:45:00,64.5,39.6,30.00,NW,325,10.0,12.0,40,0.00,,,0.00,269,Wunderground v.1.15,2013-02-27 22:45:00,
2013-02-27 16:54:00,64.1,39.9,30.00,NW,309,7.0,8.0,41,0.00,,,0.00,185,Wunderground v.1.15,2013-02-27 22:54:00,
2013-02-27 17:05:00,63.7,39.5,30.00,NNW,338,8.0,12.0,41,0.00,,,0.00,58,Wunderground v.1.15,2013-02-27 23:05:00,
2013-02-27 17:10:00,63.4,39.3,30.00,NNW,333,8.0,8.0,41,0.00,,,0.00,123,Wunderground v.1.15,2013-02-27 23:10:00,
2013-02-27 17:15:00,63.2,39.1,30.00,North,5,7.0,11.0,41,0.00,,,0.00,77,Wunderground v.1.15,2013-02-27 23:15:00,
2013-02-27 17:25:00,63.0,38.9,30.01,North,355,8.0,11.0,41,0.00,,,0.00,88,Wunderground v.1.15,2013-02-27 23:25:00,
2013-02-27 17:30:00,62.8,38.1,30.01,NNW,342,8.0,11.0,40,0.00,,,0.00,70,Wunderground v.1.15,2013-02-27 23:30:00,
2013-02-27 17:35:00,62.6,38.6,30.01,NNW,346,8.0,11.0,41,0.00,,,0.00,46,Wunderground v.1.15,2013-02-27 23:35:00,
2013-02-27 17:40:00,62.3,37.7,30.01,NNW,347,8.0,8.0,40,0.00,,,0.00,33,Wunderground v.1.15,2013-02-27 23:40:00,
2013-02-27 17:45:00,62.0,38.0,30.02,NNW,337,7.0,8.0,41,0.00,,,0.00,28,Wunderground v.1.15,2013-02-27 23:45:00,
2013-02-27 17:55:00,61.4,38.1,30.02,NNW,343,6.0,7.0,42,0.00,,,0.00,19,Wunderground v.1.15,2013-02-27 23:55:00,
2013-02-27 18:00:00,61.1,38.4,30.02,NNW,333,4.0,4.0,43,0.00,,,0.00,16,Wunderground v.1.15,2013-02-28 00:00:00,
2013-02-27 18:10:00,60.6,38.0,30.02,North,360,4.0,5.0,43,0.00,,,0.00,5,Wunderground v.1.15,2013-02-28 00:10:00,
2013-02-27 18:20:00,60.0,38.0,30.03,NNW,346,4.0,5.0,44,0.00,,,0.00,0,Wunderground v.1.15,2013-02-28 00:20:00,
2013-02-27 18:25:00,59.8,38.4,30.03,NNW,333,4.0,5.0,45,0.00,,,0.00,0,Wunderground v.1.15,2013-02-28 00:25:00,
2013-02-27 18:30:00,59.6,37.6,30.03,NW,326,5.0,5.0,44,0.00,,,0.00,0,Wunderground v.1.15,2013-02-28 00:30:00,
2013-02-27 18:39:00,59.2,37.9,30.03,NNW,334,4.0,4.0,45,0.00,,,0.00,0,Wunderground v.1.15,2013-02-28 00:39:00,
2013-02-27 18:50:00,58.9,37.0,30.03,North,355,5.0,7.0,44,0.00,,,0.00,0,Wunderground v.1.15,2013-02-28 00:50:00,
2013-02-27 18:55:00,58.8,36.9,30.04,NW,318,6.0,7.0,44,0.00,,,0.00,0,Wunderground v.1.15,2013-02-28 00:55:00,
2013-02-27 19:00:00,58.7,36.8,30.04,NNW,335,6.0,6.0,44,0.00,,,0.00,0,Wunderground v.1.15,2013-02-28 01:00:00,
2013-02-27 19:09:00,58.2,36.9,30.05,NNW,333,5.0,5.0,45,0.00,,,0.00,0,Wunderground v.1.15,2013-02-28 01:09:00,
2013-02-27 19:15:00,57.9,36.7,30.06,NW,317,4.0,5.0,45,0.00,,,0.00,0,Wunderground v.1.15,2013-02-28 01:15:00,
2013-02-27 19:20:00,57.6,37.0,30.06,NW,319,2.0,2.0,46,0.00,,,0.00,0,Wunderground v.1.15,2013-02-28 01:20:00,
2013-02-27 19:25:00,57.3,37.2,30.06,NW,320,1.0,3.0,47,0.00,,,0.00,0,Wunderground v.1.15,2013-02-28 01:25:00,
2013-02-27 19:30:00,56.9,36.9,30.06,NW,317,1.0,4.0,47,0.00,,,0.00,0,Wunderground v.1.15,2013-02-28 01:30:00,
2013-02-27 19:40:00,56.4,36.4,30.07,NNW,338,3.0,4.0,47,0.00,,,0.00,0,Wunderground v.1.15,2013-02-28 01:40:00,
2013-02-27 19:45:00,56.2,36.8,30.07,NW,325,2.0,4.0,48,0.00,,,0.00,0,Wunderground v.1.15,2013-02-28 01:45:00,
2013-02-27 19:54:00,55.5,37.1,30.08,WNW,302,1.0,1.0,50,0.00,,,0.00,0,Wunderground v.1.15,2013-02-28 01:54:00,
2013-02-27 20:04:00,55.0,35.7,30.07,NW,321,2.0,4.0,48,0.00,,,0.00,0,Wunderground v.1.15,2013-02-28 02:04:00,
2013-02-27 20:10:00,54.9,35.6,30.08,NW,325,3.0,3.0,48,0.00,,,0.00,0,Wunderground v.1.15,2013-02-28 02:10:00,
2013-02-27 20:15:00,54.8,34.9,30.08,WNW,294,3.0,4.0,47,0.00,,,0.00,0,Wunderground v.1.15,2013-02-28 02:15:00,
2013-02-27 20:20:00,54.8,34.4,30.08,NNW,336,4.0,4.0,46,0.00,,,0.00,0,Wunderground v.1.15,2013-02-28 02:20:00,
2013-02-27 20:29:00,54.5,34.1,30.09,NW,321,3.0,3.0,46,0.00,,,0.00,0,Wunderground v.1.15,2013-02-28 02:29:00,
2013-02-27 20:34:00,54.4,34.0,30.09,NW,323,2.0,3.0,46,0.00,,,0.00,0,Wunderground v.1.15,2013-02-28 02:34:00,
2013-02-27 20:39:00,54.2,33.3,30.09,NW,309,2.0,3.0,45,0.00,,,0.00,0,Wunderground v.1.15,2013-02-28 02:39:00,
2013-02-27 20:44:00,54.0,33.7,30.09,NW,310,2.0,3.0,46,0.00,,,0.00,0,Wunderground v.1.15,2013-02-28 02:44:00,
2013-02-27 20:50:00,53.8,33.5,30.09,NW,323,2.0,2.0,46,0.00,,,0.00,0,Wunderground v.1.15,2013-02-28 02:50:00,
2013-02-27 20:55:00,53.7,33.4,30.09,WNW,302,2.0,2.0,46,0.00,,,0.00,0,Wunderground v.1.15,2013-02-28 02:55:00,
2013-02-27 21:00:00,53.5,33.2,30.10,WNW,302,1.0,1.0,46,0.00,,,0.00,0,Wunderground v.1.15,2013-02-28 03:00:00,
2013-02-27 21:09:00,52.9,34.2,30.10,WNW,302,0.0,0.0,49,0.00,,,0.00,0,Wunderground v.1.15,2013-02-28 03:09:00,
2013-02-27 21:14:00,52.4,34.3,30.10,WNW,302,0.0,0.0,50,0.00,,,0.00,0,Wunderground v.1.15,2013-02-28 03:14:00,
2013-02-27 21:20:00,51.8,34.2,30.10,WNW,302,0.0,0.0,51,0.00,,,0.00,0,Wunderground v.1.15,2013-02-28 03:20:00,
2013-02-27 21:25:00,51.3,33.8,30.10,WNW,302,0.0,0.0,51,0.00,,,0.00,0,Wunderground v.1.15,2013-02-28 03:25:00,
2013-02-27 21:30:00,51.0,33.0,30.11,NNW,331,0.0,0.0,50,0.00,,,0.00,0,Wunderground v.1.15,2013-02-28 03:30:00,
2013-02-27 21:39:00,50.8,33.3,30.11,NNW,329,1.0,2.0,51,0.00,,,0.00,0,Wunderground v.1.15,2013-02-28 03:39:00,
2013-02-27 21:50:00,50.6,33.6,30.12,NW,315,1.0,3.0,52,0.00,,,0.00,0,Wunderground v.1.15,2013-02-28 03:50:00,
2013-02-27 21:55:00,50.4,33.4,30.12,NW,325,1.0,3.0,52,0.00,,,0.00,0,Wunderground v.1.15,2013-02-28 03:55:00,
2013-02-27 22:04:00,50.2,33.2,30.12,NW,321,1.0,3.0,52,0.00,,,0.00,0,Wunderground v.1.15,2013-02-28 04:04:00,
2013-02-27 22:09:00,50.2,33.2,30.12,NW,317,1.0,1.0,52,0.00,,,0.00,0,Wunderground v.1.15,2013-02-28 04:09:00,
2013-02-27 22:15:00,50.1,33.1,30.12,NNW,335,1.0,1.0,52,0.00,,,0.00,0,Wunderground v.1.15,2013-02-28 04:15:00,
2013-02-27 22:20:00,49.9,33.0,30.12,NNW,338,1.0,1.0,52,0.00,,,0.00,0,Wunderground v.1.15,2013-02-28 04:20:00,
2013-02-27 22:25:00,49.6,33.2,30.12,NW,326,1.0,1.0,53,0.00,,,0.00,0,Wunderground v.1.15,2013-02-28 04:25:00,
2013-02-27 22:30:00,49.4,33.0,30.12,NW,323,1.0,1.0,53,0.00,,,0.00,0,Wunderground v.1.15,2013-02-28 04:30:00,
2013-02-27 22:39:00,49.1,32.7,30.13,NNW,333,1.0,3.0,53,0.00,,,0.00,0,Wunderground v.1.15,2013-02-28 04:39:00,
2013-02-27 22:45:00,49.0,32.6,30.13,NNW,333,1.0,3.0,53,0.00,,,0.00,0,Wunderground v.1.15,2013-02-28 04:45:00,
2013-02-27 22:50:00,48.9,32.0,30.13,NNW,329,1.0,2.0,52,0.00,,,0.00,0,Wunderground v.1.15,2013-02-28 04:50:00,
2013-02-27 23:00:00,48.9,32.0,30.13,NW,304,2.0,2.0,52,0.00,,,0.00,0,Wunderground v.1.15,2013-02-28 05:00:00,
2013-02-27 23:09:00,48.6,31.3,30.13,NW,316,2.0,2.0,51,0.00,,,0.00,0,Wunderground v.1.15,2013-02-28 05:09:00,
2013-02-27 23:14:00,48.4,31.6,30.14,NW,326,1.0,2.0,52,0.00,,,0.00,0,Wunderground v.1.15,2013-02-28 05:14:00,
2013-02-27 23:20:00,48.1,31.8,30.13,NW,326,0.0,0.0,53,0.00,,,0.00,0,Wunderground v.1.15,2013-02-28 05:20:00,
2013-02-27 23:30:00,47.4,31.6,30.13,NW,323,0.0,2.0,54,0.00,,,0.00,0,Wunderground v.1.15,2013-02-28 05:30:00,
2013-02-27 23:39:00,47.0,31.2,30.12,NNW,343,1.0,1.0,54,0.00,,,0.00,0,Wunderground v.1.15,2013-02-28 05:39:00,
2013-02-27 23:44:00,46.8,31.0,30.12,NNW,339,1.0,1.0,54,0.00,,,0.00,0,Wunderground v.1.15,2013-02-28 05:44:00,
2013-02-27 23:50:00,46.7,30.9,30.12,NNW,346,1.0,1.0,54,0.00,,,0.00,0,Wunderground v.1.15,2013-02-28 05:50:00,
2013-02-27 23:55:00,46.6,30.8,30.12,NNW,340,1.0,1.0,54,0.00,,,0.00,0,Wunderground v.1.15,2013-02-28 05:55:00,